createdAt,value
2022-10-29T00:00:07.187Z,101640.96
2022-10-29T00:02:56.443Z,101640.96
2022-10-29T00:05:24.790Z,101637.46
2022-10-29T00:07:53.098Z,101639.73
2022-10-29T00:10:21.202Z,101638.52
2022-10-29T00:13:06.533Z,101639.23
2022-10-29T00:15:34.567Z,101633.80
2022-10-29T00:18:02.639Z,101637.83
2022-10-29T00:20:30.502Z,101638.53
2022-10-29T00:23:16.103Z,101632.91
2022-10-29T00:25:43.942Z,101632.74
2022-10-29T00:28:11.867Z,101635.71
2022-10-29T00:30:39.864Z,101639.92
2022-10-29T00:33:25.391Z,101636.61
2022-10-29T00:36:02.152Z,101630.31
2022-10-29T00:38:34.909Z,101625.59
2022-10-29T00:41:04.526Z,101634.54
2022-10-29T00:43:37.597Z,101631.39
2022-10-29T00:46:12.580Z,101630.17
2022-10-29T00:48:45.595Z,101618.79
2022-10-29T00:51:15.586Z,101611.09
2022-10-29T00:54:00.427Z,101606.33
2022-10-29T00:56:31.742Z,101594.77
2022-10-29T00:59:00.309Z,101586.51
2022-10-29T01:01:28.393Z,101584.73
2022-10-29T01:04:00.239Z,101594.17
2022-10-29T01:06:47.327Z,101591.02
2022-10-29T01:09:33.175Z,101593.31
2022-10-29T01:12:51.465Z,101586.84
2022-10-29T01:15:34.203Z,101568.10
2022-10-29T01:18:10.965Z,101567.91
2022-10-29T01:21:09.298Z,101565.65
2022-10-29T01:23:58.237Z,101558.63
2022-10-29T01:27:15.985Z,101560.01
2022-10-29T01:29:57.731Z,101562.44
2022-10-29T01:32:35.100Z,101562.22
2022-10-29T01:35:10.970Z,101553.77
2022-10-29T01:37:53.749Z,101556.71
2022-10-29T01:40:26.840Z,101555.63
2022-10-29T01:43:04.935Z,101555.25
2022-10-29T01:45:42.566Z,101549.98
2022-10-29T01:48:19.006Z,101543.98
2022-10-29T01:50:50.079Z,101538.73
2022-10-29T01:53:19.337Z,101540.45
2022-10-29T01:55:47.230Z,101542.00
2022-10-29T02:01:09.243Z,101528.14
2022-10-29T02:03:53.070Z,101534.62
2022-10-29T02:06:50.238Z,101535.31
2022-10-29T02:09:27.760Z,101531.45
2022-10-29T02:12:01.819Z,101526.01
2022-10-29T02:14:38.857Z,101522.30
2022-10-29T02:17:08.054Z,101524.23
2022-10-29T02:19:37.337Z,101523.67
2022-10-29T02:22:05.360Z,101524.02
2022-10-29T02:24:33.350Z,101528.89
2022-10-29T02:27:18.618Z,101526.23
2022-10-29T02:30:05.120Z,101540.25
2022-10-29T02:32:33.145Z,101543.72
2022-10-29T02:35:01.755Z,101542.63
2022-10-29T02:37:30.011Z,101531.89
2022-10-29T02:39:58.159Z,101534.50
2022-10-29T02:42:26.253Z,101542.72
2022-10-29T02:44:54.136Z,101548.85
2022-10-29T02:47:39.548Z,101549.19
2022-10-29T02:50:07.990Z,101536.92
2022-10-29T02:52:35.891Z,101535.33
2022-10-29T02:55:03.992Z,101525.14
2022-10-29T02:57:31.873Z,101511.27
2022-10-29T02:59:59.724Z,101519.48
2022-10-29T03:02:27.687Z,101522.77
2022-10-29T03:04:55.709Z,101512.22
2022-10-29T03:07:23.663Z,101501.49
2022-10-29T03:10:09.691Z,101504.67
2022-10-29T03:12:37.569Z,101515.36
2022-10-29T03:15:05.976Z,101504.80
2022-10-29T03:17:33.849Z,101497.04
2022-10-29T03:20:01.886Z,101497.54
2022-10-29T03:22:29.788Z,101502.08
2022-10-29T03:24:57.734Z,101498.73
2022-10-29T03:27:25.676Z,101496.23
2022-10-29T03:29:53.671Z,101499.73
2022-10-29T03:32:21.527Z,101496.04
2022-10-29T03:34:49.402Z,101489.73
2022-10-29T03:37:17.297Z,101490.25
2022-10-29T03:40:04.231Z,101495.35
2022-10-29T03:42:32.205Z,101485.86
2022-10-29T03:45:01.508Z,101487.98
2022-10-29T03:47:29.551Z,101490.59
2022-10-29T03:49:57.452Z,101493.92
2022-10-29T03:52:42.854Z,101494.10
2022-10-29T03:55:11.129Z,101491.64
2022-10-29T03:57:38.984Z,101484.08
2022-10-29T04:00:07.696Z,101495.63
2022-10-29T04:02:41.289Z,101491.93
2022-10-29T04:05:09.407Z,101494.73
2022-10-29T04:07:37.310Z,101488.23
2022-10-29T04:10:05.604Z,101489.44
2022-10-29T04:12:33.474Z,101488.56
2022-10-29T04:15:01.342Z,101491.73
2022-10-29T04:17:29.219Z,101496.30
2022-10-29T04:19:57.566Z,101504.57
2022-10-29T04:24:12.183Z,101504.42
2022-10-29T04:30:49.796Z,101495.11
2022-10-29T04:33:18.315Z,101491.98
2022-10-29T04:35:52.952Z,101494.45
2022-10-29T04:38:22.177Z,101498.52
2022-10-29T04:40:50.572Z,101495.02
2022-10-29T04:43:18.658Z,101498.20
2022-10-29T04:45:52.087Z,101498.58
2022-10-29T04:48:20.446Z,101499.31
2022-10-29T04:50:48.936Z,101507.58
2022-10-29T04:53:17.234Z,101508.48
2022-10-29T04:55:46.026Z,101513.26
2022-10-29T04:58:16.807Z,101517.34
2022-10-29T05:00:45.637Z,101510.35
2022-10-29T05:03:13.637Z,101506.53
2022-10-29T05:05:42.048Z,101500.77
2022-10-29T05:08:11.165Z,101493.60
2022-10-29T05:10:40.085Z,101483.79
2022-10-29T05:13:11.480Z,101483.11
2022-10-29T05:15:40.188Z,101489.98
2022-10-29T05:18:09.719Z,101490.16
2022-10-29T05:20:37.664Z,101482.13
2022-10-29T05:23:08.026Z,101477.08
2022-10-29T05:25:55.640Z,101485.88
2022-10-29T05:28:24.502Z,101491.51
2022-10-29T05:30:53.680Z,101495.90
2022-10-29T05:33:25.231Z,101496.45
2022-10-29T05:36:11.205Z,101507.18
2022-10-29T05:38:39.146Z,101510.34
2022-10-29T05:41:24.444Z,101502.67
2022-10-29T05:43:52.307Z,101497.23
2022-10-29T05:46:37.900Z,101492.52
2022-10-29T05:49:22.958Z,101500.94
2022-10-29T05:52:08.250Z,101506.05
2022-10-29T05:54:53.764Z,101504.12
2022-10-29T05:57:39.023Z,101511.48
2022-10-29T06:00:07.989Z,101520.91
2022-10-29T06:02:42.817Z,101523.19
2022-10-29T06:05:10.753Z,101522.63
2022-10-29T06:07:38.967Z,101528.73
2022-10-29T06:10:07.700Z,101535.02
2022-10-29T06:12:35.953Z,101540.93
2022-10-29T06:15:04.366Z,101537.90
2022-10-29T06:17:49.868Z,101535.05
2022-10-29T06:20:21.070Z,101533.23
2022-10-29T06:22:57.653Z,101538.95
2022-10-29T06:25:27.666Z,101542.02
2022-10-29T06:28:22.070Z,101544.56
2022-10-29T06:30:50.677Z,101537.83
2022-10-29T06:33:36.192Z,101545.48
2022-10-29T06:36:21.989Z,101549.29
2022-10-29T06:38:50.167Z,101544.30
2022-10-29T06:41:35.613Z,101542.48
2022-10-29T06:44:03.643Z,101542.27
2022-10-29T06:46:34.250Z,101547.61
2022-10-29T06:49:02.861Z,101553.15
2022-10-29T06:51:48.981Z,101553.27
2022-10-29T06:54:34.656Z,101554.44
2022-10-29T06:57:22.286Z,101558.63
2022-10-29T06:59:50.221Z,101555.39
2022-10-29T07:02:19.549Z,101554.27
2022-10-29T07:04:47.828Z,101551.76
2022-10-29T07:07:16.598Z,101556.44
2022-10-29T07:09:44.620Z,101555.85
2022-10-29T07:12:12.540Z,101557.72
2022-10-29T07:14:40.403Z,101555.56
2022-10-29T07:17:08.275Z,101559.54
2022-10-29T07:19:36.211Z,101560.89
2022-10-29T07:22:04.126Z,101554.84
2022-10-29T07:24:31.995Z,101552.50
2022-10-29T07:27:00.133Z,101554.70
2022-10-29T07:29:28.063Z,101559.55
2022-10-29T07:31:55.923Z,101554.75
2022-10-29T07:34:41.577Z,101560.85
2022-10-29T07:37:27.510Z,101561.34
2022-10-29T07:39:55.420Z,101557.04
2022-10-29T07:42:23.591Z,101559.95
2022-10-29T07:44:51.806Z,101559.35
2022-10-29T07:47:37.386Z,101565.83
2022-10-29T07:50:05.792Z,101568.27
2022-10-29T07:52:33.819Z,101568.52
2022-10-29T07:55:02.904Z,101572.48
2022-10-29T07:57:30.840Z,101571.14
2022-10-29T07:59:58.689Z,101572.63
2022-10-29T08:02:26.657Z,101569.71
2022-10-29T08:05:11.839Z,101567.90
2022-10-29T08:07:39.777Z,101567.27
2022-10-29T08:10:08.024Z,101569.30
2022-10-29T08:12:56.127Z,101567.30
2022-10-29T08:15:26.573Z,101569.14
2022-10-29T08:17:54.969Z,101570.45
2022-10-29T08:20:25.980Z,101562.23
2022-10-29T08:22:54.343Z,101563.91
2022-10-29T08:25:22.610Z,101577.89
2022-10-29T08:28:01.849Z,101587.98
2022-10-29T08:30:30.178Z,101589.30
2022-10-29T08:32:58.760Z,101585.69
2022-10-29T08:35:44.318Z,101595.47
2022-10-29T08:38:12.256Z,101595.39
2022-10-29T08:41:17.601Z,101592.14
2022-10-29T08:44:04.401Z,101589.30
2022-10-29T08:46:51.991Z,101585.16
2022-10-29T08:49:37.684Z,101586.95
2022-10-29T08:52:29.324Z,101590.42
2022-10-29T08:55:19.200Z,101579.35
2022-10-29T08:57:57.062Z,101584.34
2022-10-29T09:00:43.237Z,101576.36
2022-10-29T09:03:12.631Z,101573.27
2022-10-29T09:06:03.141Z,101584.48
2022-10-29T09:08:54.809Z,101597.58
2022-10-29T09:11:45.091Z,101608.80
2022-10-29T09:14:22.329Z,101608.30
2022-10-29T09:17:21.208Z,101609.02
2022-10-29T09:20:34.477Z,101600.89
2022-10-29T09:23:23.880Z,101593.59
2022-10-29T09:25:54.590Z,101595.74
2022-10-29T09:28:43.926Z,101603.88
2022-10-29T09:31:47.996Z,101599.90
2022-10-29T09:34:40.598Z,101608.52
2022-10-29T09:37:54.813Z,101609.66
2022-10-29T09:40:43.578Z,101611.83
2022-10-29T09:43:26.479Z,101611.00
2022-10-29T09:46:21.308Z,101619.86
2022-10-29T09:49:34.391Z,101622.40
2022-10-29T09:52:13.991Z,101622.98
2022-10-29T09:55:01.061Z,101617.68
2022-10-29T09:57:31.677Z,101618.39
2022-10-29T10:00:02.587Z,101623.21
2022-10-29T10:03:15.500Z,101622.86
2022-10-29T10:06:16.746Z,101635.33
2022-10-29T10:09:07.318Z,101638.36
2022-10-29T10:11:44.392Z,101639.29
2022-10-29T10:14:20.883Z,101635.64
2022-10-29T10:16:59.080Z,101637.95
2022-10-29T10:19:30.738Z,101635.34
2022-10-29T10:22:04.261Z,101635.45
2022-10-29T10:24:34.429Z,101634.46
2022-10-29T10:27:40.168Z,101630.11
2022-10-29T10:30:18.063Z,101628.52
2022-10-29T10:32:46.010Z,101638.77
2022-10-29T10:35:31.346Z,101634.22
2022-10-29T10:38:16.976Z,101633.51
2022-10-29T10:40:54.632Z,101633.64
2022-10-29T10:43:24.979Z,101643.67
2022-10-29T10:46:10.604Z,101647.59
2022-10-29T10:49:02.203Z,101656.86
2022-10-29T10:51:33.002Z,101654.50
2022-10-29T10:54:32.955Z,101651.43
2022-10-29T10:57:19.621Z,101648.85
2022-10-29T11:00:18.770Z,101658.94
2022-10-29T11:03:08.668Z,101659.48
2022-10-29T11:05:44.796Z,101657.67
2022-10-29T11:08:29.022Z,101660.33
2022-10-29T11:11:23.004Z,101661.83
2022-10-29T11:13:52.061Z,101668.55
2022-10-29T11:16:46.440Z,101672.77
2022-10-29T11:19:24.731Z,101674.79
2022-10-29T11:22:20.447Z,101672.73
2022-10-29T11:25:16.145Z,101675.81
2022-10-29T11:28:14.615Z,101671.98
2022-10-29T11:30:48.785Z,101667.13
2022-10-29T11:33:35.243Z,101683.39
2022-10-29T11:36:27.348Z,101677.38
2022-10-29T11:39:22.889Z,101669.35
2022-10-29T11:41:58.376Z,101670.99
2022-10-29T11:44:28.038Z,101677.23
2022-10-29T11:47:06.496Z,101677.77
2022-10-29T11:49:52.939Z,101673.94
2022-10-29T11:52:35.653Z,101663.87
2022-10-29T11:55:42.325Z,101657.10
2022-10-29T11:58:15.958Z,101657.98
2022-10-29T12:01:07.860Z,101666.04
2022-10-29T12:04:24.241Z,101667.40
2022-10-29T12:07:04.414Z,101675.13
2022-10-29T12:09:45.597Z,101680.83
2022-10-29T12:12:18.129Z,101682.34
2022-10-29T12:14:54.306Z,101680.78
2022-10-29T12:17:46.985Z,101683.08
2022-10-29T12:20:29.763Z,101675.75
2022-10-29T12:23:15.137Z,101679.86
2022-10-29T12:26:09.726Z,101681.29
2022-10-29T12:29:00.755Z,101684.48
2022-10-29T12:31:38.028Z,101679.42
2022-10-29T12:34:26.671Z,101681.59
2022-10-29T12:37:15.742Z,101685.05
2022-10-29T12:39:49.613Z,101690.45
2022-10-29T12:42:25.583Z,101684.38
2022-10-29T12:45:14.463Z,101678.54
2022-10-29T12:48:18.198Z,101681.61
2022-10-29T12:51:12.986Z,101680.03
2022-10-29T12:53:59.469Z,101686.77
2022-10-29T12:56:49.355Z,101690.17
2022-10-29T12:59:30.505Z,101693.85
2022-10-29T13:02:22.027Z,101692.29
2022-10-29T13:05:34.263Z,101690.13
2022-10-29T13:08:02.217Z,101702.20
2022-10-29T13:10:33.193Z,101707.65
2022-10-29T13:13:20.189Z,101711.36
2022-10-29T13:16:01.019Z,101710.90
2022-10-29T13:18:42.075Z,101704.05
2022-10-29T13:21:55.236Z,101714.34
2022-10-29T13:24:23.596Z,101715.55
2022-10-29T13:27:18.020Z,101715.30
2022-10-29T13:30:18.339Z,101712.45
2022-10-29T13:32:46.439Z,101713.58
2022-10-29T13:35:17.299Z,101710.43
2022-10-29T13:37:55.492Z,101713.10
2022-10-29T13:40:23.570Z,101715.40
2022-10-29T13:43:18.587Z,101715.11
2022-10-29T13:45:52.245Z,101714.41
2022-10-29T13:48:32.018Z,101715.64
2022-10-29T13:51:30.195Z,101715.02
2022-10-29T13:54:17.872Z,101716.46
2022-10-29T13:56:51.421Z,101721.97
2022-10-29T13:59:25.311Z,101717.94
2022-10-29T14:02:01.369Z,101722.39
2022-10-29T14:04:39.125Z,101722.96
2022-10-29T14:07:17.168Z,101723.19
2022-10-29T14:09:50.910Z,101720.97
2022-10-29T14:12:23.368Z,101721.21
2022-10-29T14:15:02.803Z,101717.73
2022-10-29T14:17:31.027Z,101719.91
2022-10-29T14:19:59.039Z,101721.38
2022-10-29T14:22:39.701Z,101720.01
2022-10-29T14:25:28.127Z,101728.88
2022-10-29T14:28:32.944Z,101727.23
2022-10-29T14:31:14.819Z,101720.42
2022-10-29T14:33:45.384Z,101719.21
2022-10-29T14:36:26.878Z,101722.24
2022-10-29T14:39:37.037Z,101730.82
2022-10-29T14:42:27.565Z,101730.73
2022-10-29T14:44:58.055Z,101732.69
2022-10-29T14:47:33.454Z,101730.42
2022-10-29T14:50:06.066Z,101738.73
2022-10-29T14:52:41.131Z,101745.09
2022-10-29T14:55:17.750Z,101738.27
2022-10-29T14:58:12.187Z,101739.05
2022-10-29T15:00:54.668Z,101741.92
2022-10-29T15:03:25.682Z,101742.46
2022-10-29T15:06:21.320Z,101734.45
2022-10-29T15:09:20.051Z,101734.21
2022-10-29T15:12:08.004Z,101730.40
2022-10-29T15:14:45.930Z,101729.94
2022-10-29T15:17:32.132Z,101733.88
2022-10-29T15:20:04.619Z,101732.50
2022-10-29T15:22:55.886Z,101723.41
2022-10-29T15:25:31.076Z,101728.34
2022-10-29T15:28:00.389Z,101722.02
2022-10-29T15:30:36.812Z,101721.88
2022-10-29T15:33:12.783Z,101727.20
2022-10-29T15:35:49.532Z,101732.01
2022-10-29T15:38:35.786Z,101730.45
2022-10-29T15:41:09.565Z,101730.52
2022-10-29T15:43:56.743Z,101728.48
2022-10-29T15:46:49.944Z,101727.46
2022-10-29T15:49:35.172Z,101738.11
2022-10-29T15:52:03.814Z,101742.18
2022-10-29T15:54:49.580Z,101749.80
2022-10-29T15:57:18.030Z,101754.23
2022-10-29T15:59:45.981Z,101758.64
2022-10-29T16:02:17.816Z,101756.73
2022-10-29T16:04:46.017Z,101758.00
2022-10-29T16:07:14.717Z,101759.62
2022-10-29T16:09:48.007Z,101766.52
2022-10-29T16:12:33.652Z,101766.59
2022-10-29T16:15:01.581Z,101765.02
2022-10-29T16:17:29.571Z,101769.11
2022-10-29T16:19:57.487Z,101773.18
2022-10-29T16:22:29.844Z,101771.27
2022-10-29T16:24:57.796Z,101770.96
2022-10-29T16:27:25.724Z,101772.39
2022-10-29T16:29:53.617Z,101771.00
2022-10-29T16:32:23.702Z,101772.79
2022-10-29T16:34:52.385Z,101774.56
2022-10-29T16:37:21.575Z,101777.39
2022-10-29T16:39:49.503Z,101781.62
2022-10-29T16:42:29.929Z,101779.17
2022-10-29T16:45:21.588Z,101775.52
2022-10-29T16:47:52.027Z,101771.51
2022-10-29T16:50:23.111Z,101766.95
2022-10-29T16:52:58.567Z,101766.96
2022-10-29T16:55:43.806Z,101769.08
2022-10-29T16:58:13.581Z,101772.23
2022-10-29T17:00:41.795Z,101772.78
2022-10-29T17:03:12.851Z,101770.86
2022-10-29T17:05:44.364Z,101775.45
2022-10-29T17:08:34.520Z,101777.95
2022-10-29T17:11:06.592Z,101775.35
2022-10-29T17:13:34.958Z,101773.27
2022-10-29T17:16:10.884Z,101773.13
2022-10-29T17:18:38.742Z,101777.02
2022-10-29T17:21:24.804Z,101782.15
2022-10-29T17:23:52.687Z,101791.46
2022-10-29T17:26:20.637Z,101789.72
2022-10-29T17:28:48.632Z,101792.02
2022-10-29T17:31:16.566Z,101797.13
2022-10-29T17:34:01.950Z,101794.02
2022-10-29T17:36:29.843Z,101800.52
2022-10-29T17:38:57.835Z,101807.03
2022-10-29T17:41:43.333Z,101802.50
2022-10-29T17:44:11.236Z,101796.55
2022-10-29T17:46:39.163Z,101807.44
2022-10-29T17:49:07.537Z,101809.91
2022-10-29T17:51:36.219Z,101815.17
2022-10-29T17:54:04.377Z,101809.77
2022-10-29T17:56:32.504Z,101812.40
2022-10-29T17:59:00.543Z,101809.60
2022-10-29T18:01:28.785Z,101808.03
2022-10-29T18:04:14.423Z,101802.09
2022-10-29T18:06:42.310Z,101802.64
2022-10-29T18:09:10.365Z,101801.59
2022-10-29T18:11:38.290Z,101800.19
2022-10-29T18:14:06.351Z,101787.05
2022-10-29T18:16:34.226Z,101787.06
2022-10-29T18:19:19.621Z,101794.26
2022-10-29T18:21:47.745Z,101798.47
2022-10-29T18:24:15.687Z,101791.46
2022-10-29T18:26:43.610Z,101793.05
2022-10-29T18:29:12.542Z,101794.27
2022-10-29T18:31:58.127Z,101791.30
2022-10-29T18:34:26.188Z,101781.14
2022-10-29T18:36:54.059Z,101772.71
2022-10-29T18:39:22.547Z,101769.75
2022-10-29T18:41:50.585Z,101773.95
2022-10-29T18:44:18.485Z,101779.39
2022-10-29T18:46:46.377Z,101777.81
2022-10-29T18:49:14.479Z,101775.71
2022-10-29T18:52:00.186Z,101790.42
2022-10-29T18:54:28.112Z,101790.42
2022-10-29T18:56:56.073Z,101792.88
2022-10-29T18:59:23.960Z,101793.75
2022-10-29T19:02:11.892Z,101795.33
2022-10-29T19:04:40.256Z,101800.40
2022-10-29T19:07:08.167Z,101793.92
2022-10-29T19:09:36.143Z,101782.72
2022-10-29T19:12:04.158Z,101778.34
2022-10-29T19:14:32.064Z,101779.55
2022-10-29T19:16:59.915Z,101781.31
2022-10-29T19:19:27.845Z,101787.27
2022-10-29T19:22:13.518Z,101787.63
2022-10-29T19:24:41.392Z,101786.05
2022-10-29T19:27:09.257Z,101790.08
2022-10-29T19:29:37.169Z,101785.86
2022-10-29T19:32:05.326Z,101789.38
2022-10-29T19:34:33.535Z,101797.77
2022-10-29T19:37:01.404Z,101799.88
2022-10-29T19:39:29.286Z,101794.09
2022-10-29T19:41:57.325Z,101788.48
2022-10-29T19:44:25.267Z,101788.65
2022-10-29T19:46:53.134Z,101790.25
2022-10-29T19:49:21.460Z,101795.86
2022-10-29T19:51:49.433Z,101800.94
2022-10-29T19:54:17.361Z,101809.52
2022-10-29T19:57:02.619Z,101806.02
2022-10-29T19:59:30.504Z,101813.55
2022-10-29T20:02:15.980Z,101822.84
2022-10-29T20:05:01.248Z,101825.13
2022-10-29T20:07:29.675Z,101820.38
2022-10-29T20:09:57.561Z,101814.77
2022-10-29T20:12:25.572Z,101810.92
2022-10-29T20:15:12.223Z,101807.95
2022-10-29T20:17:40.766Z,101812.49
2022-10-29T20:20:15.817Z,101814.41
2022-10-29T20:22:46.381Z,101820.73
2022-10-29T20:25:15.418Z,101826.34
2022-10-29T20:27:45.306Z,101827.39
2022-10-29T20:30:30.950Z,101821.08
2022-10-29T20:32:59.196Z,101819.85
2022-10-29T20:35:27.470Z,101818.80
2022-10-29T20:37:55.662Z,101818.27
2022-10-29T20:40:23.832Z,101814.23
2022-10-29T20:42:52.105Z,101815.80
2022-10-29T20:45:20.188Z,101820.70
2022-10-29T20:48:05.982Z,101819.13
2022-10-29T20:50:33.970Z,101827.72
2022-10-29T20:53:19.355Z,101823.34
2022-10-29T20:55:54.097Z,101817.02
2022-10-29T20:58:22.593Z,101811.25
2022-10-29T21:00:50.701Z,101805.99
2022-10-29T21:03:36.554Z,101798.81
2022-10-29T21:06:22.261Z,101808.12
2022-10-29T21:08:51.866Z,101816.36
2022-10-29T21:11:21.379Z,101811.98
2022-10-29T21:13:49.945Z,101799.70
2022-10-29T21:16:23.814Z,101801.29
2022-10-29T21:18:54.144Z,101801.12
2022-10-29T21:21:40.355Z,101799.52
2022-10-29T21:24:08.315Z,101800.57
2022-10-29T21:26:36.178Z,101797.41
2022-10-29T21:29:21.470Z,101804.08
2022-10-29T21:31:49.878Z,101811.42
2022-10-29T21:34:17.896Z,101808.98
2022-10-29T21:36:46.079Z,101804.61
2022-10-29T21:39:13.942Z,101808.13
2022-10-29T21:41:41.837Z,101807.05
2022-10-29T21:44:09.799Z,101807.58
2022-10-29T21:46:37.688Z,101808.29
2022-10-29T21:49:05.555Z,101804.77
2022-10-29T21:51:33.470Z,101801.98
2022-10-29T21:54:01.302Z,101794.10
2022-10-29T21:56:29.193Z,101795.33
2022-10-29T21:58:57.067Z,101801.10
2022-10-29T22:01:25.035Z,101796.20
2022-10-29T22:03:53.017Z,101792.17
2022-10-29T22:06:22.761Z,101796.02
2022-10-29T22:08:55.831Z,101795.67
2022-10-29T22:11:40.865Z,101783.59
2022-10-29T22:14:08.855Z,101779.39
2022-10-29T22:16:36.780Z,101778.86
2022-10-29T22:19:04.650Z,101780.61
2022-10-29T22:21:49.874Z,101781.31
2022-10-29T22:24:17.725Z,101794.10
2022-10-29T22:29:31.097Z,101787.98
2022-10-29T22:31:59.199Z,101793.23
2022-10-29T22:34:27.016Z,101802.69
2022-10-29T22:36:54.934Z,101800.41
2022-10-29T22:39:40.380Z,101792.54
2022-10-29T22:42:08.291Z,101799.37
2022-10-29T22:44:36.182Z,101799.55
2022-10-29T22:47:04.152Z,101803.06
2022-10-29T22:49:31.994Z,101802.00
2022-10-29T22:52:01.525Z,101796.75
2022-10-29T22:54:29.715Z,101790.80
2022-10-29T22:57:14.744Z,101797.81
2022-10-29T22:59:42.630Z,101802.73
2022-10-29T23:02:10.722Z,101798.52
2022-10-29T23:04:39.070Z,101803.08
2022-10-29T23:07:06.955Z,101805.88
2022-10-29T23:09:52.301Z,101808.86
2022-10-29T23:12:20.408Z,101802.90
2022-10-29T23:14:48.284Z,101794.85
2022-10-29T23:17:33.534Z,101795.20
2022-10-29T23:20:19.237Z,101783.48
2022-10-29T23:22:47.203Z,101781.02
2022-10-29T23:25:15.084Z,101787.85
2022-10-29T23:27:42.973Z,101803.25
2022-10-29T23:30:11.456Z,101810.96
2022-10-29T23:32:39.315Z,101811.14
2022-10-29T23:35:07.878Z,101805.89
2022-10-29T23:37:36.137Z,101806.23
2022-10-29T23:40:04.723Z,101800.46
2022-10-29T23:42:32.776Z,101798.54
2022-10-29T23:45:06.673Z,101794.16
2022-10-29T23:47:35.693Z,101791.54
2022-10-29T23:50:03.828Z,101797.84
2022-10-29T23:52:31.790Z,101799.06
2022-10-29T23:54:59.689Z,101801.34
2022-10-29T23:57:27.524Z,101804.48
